Time,TemperatureF,DewpointF,PressureIn,WindDirection,WindDirectionDegrees,WindSpeedMPH,WindSpeedGustMPH,Humidity,HourlyPrecipIn,Conditions,Clouds,dailyrainin,SoftwareType,DateUTC
2013-10-27 00:00:00,37.1,35.0,29.93,WNW,300,0.0,26.6,92,0.04,,,0.00,VWS V14.01,2013-10-27 04:00:00,
2013-10-27 00:01:00,37.1,35.0,29.93,NW,324,1.4,4.2,92,0.00,,,0.00,VWS V14.01,2013-10-27 04:01:00,
2013-10-27 00:03:00,37.2,34.8,29.93,NE,46,1.4,4.2,91,0.00,,,0.00,VWS V14.01,2013-10-27 04:03:00,
2013-10-27 00:07:00,37.2,34.8,29.93,WNW,300,0.0,7.0,91,0.00,,,0.00,VWS V14.01,2013-10-27 04:07:00,
2013-10-27 00:12:00,37.2,34.3,29.93,NW,308,2.8,12.6,89,0.00,,,0.00,VWS V14.01,2013-10-27 04:12:00,
2013-10-27 00:17:00,37.2,34.0,29.93,North,11,4.2,12.6,88,0.00,,,0.00,VWS V14.01,2013-10-27 04:17:00,
2013-10-27 00:22:00,37.1,34.2,29.92,NW,309,2.8,12.6,89,0.00,,,0.00,VWS V14.01,2013-10-27 04:22:00,
2013-10-27 00:27:00,37.0,34.1,29.93,NNW,328,4.2,12.6,89,0.00,,,0.00,VWS V14.01,2013-10-27 04:27:00,
2013-10-27 00:32:00,36.9,33.7,29.93,NW,326,8.4,21.0,88,0.01,,,0.01,VWS V14.01,2013-10-27 04:32:00,
2013-10-27 00:37:00,36.6,33.7,29.93,NW,311,1.4,21.0,89,0.01,,,0.01,VWS V14.01,2013-10-27 04:37:00,
2013-10-27 00:42:00,36.4,34.0,29.93,WSW,256,1.4,21.0,91,0.01,,,0.01,VWS V14.01,2013-10-27 04:42:00,
2013-10-27 00:47:00,36.4,34.0,29.93,West,271,0.0,21.0,91,0.01,,,0.01,VWS V14.01,2013-10-27 04:47:00,
2013-10-27 00:52:00,36.4,34.0,29.93,North,8,11.2,21.0,91,0.01,,,0.01,VWS V14.01,2013-10-27 04:52:00,
2013-10-27 00:57:00,36.4,34.3,29.93,West,273,1.4,21.0,92,0.02,,,0.02,VWS V14.01,2013-10-27 04:57:00,
2013-10-27 01:00:00,37.1,35.0,29.93,WNW,300,0.0,26.6,92,0.04,,,0.00,VWS V14.01,2013-10-27 05:00:00,
2013-10-27 01:02:00,36.1,33.7,29.93,North,350,15.4,21.0,91,0.02,,,0.02,VWS V14.01,2013-10-27 05:02:00,
2013-10-27 01:07:00,35.2,32.8,29.93,NW,309,7.0,21.0,91,0.03,,,0.03,VWS V14.01,2013-10-27 05:07:00,
2013-10-27 01:12:00,34.7,32.6,29.93,NW,317,2.8,21.0,92,0.04,,,0.04,VWS V14.01,2013-10-27 05:12:00,
2013-10-27 01:17:00,34.4,32.6,29.92,NW,316,0.0,21.0,93,0.04,,,0.04,VWS V14.01,2013-10-27 05:17:00,
2013-10-27 01:22:00,34.3,32.5,29.92,NW,316,0.0,21.0,93,0.04,,,0.04,VWS V14.01,2013-10-27 05:22:00,
2013-10-27 01:27:00,34.2,32.7,29.93,NNW,328,0.0,21.0,94,0.04,,,0.04,VWS V14.01,2013-10-27 05:27:00,
2013-10-27 01:32:00,34.1,32.6,29.92,WNW,302,1.4,21.0,94,0.04,,,0.04,VWS V14.01,2013-10-27 05:32:00,
2013-10-27 01:37:00,34.4,32.9,29.92,West,274,2.8,21.0,94,0.04,,,0.04,VWS V14.01,2013-10-27 05:37:00,
2013-10-27 01:42:00,35.1,33.5,29.92,SE,134,0.0,21.0,94,0.04,,,0.04,VWS V14.01,2013-10-27 05:42:00,
2013-10-27 01:47:00,35.8,34.2,29.93,WNW,292,1.4,21.0,94,0.05,,,0.05,VWS V14.01,2013-10-27 05:47:00,
2013-10-27 01:52:00,35.9,34.1,29.93,NNW,331,16.8,21.0,93,0.05,,,0.05,VWS V14.01,2013-10-27 05:52:00,
2013-10-27 01:57:00,36.0,34.2,29.93,NW,324,0.0,21.0,93,0.05,,,0.05,VWS V14.01,2013-10-27 05:57:00,
2013-10-27 02:00:00,35.9,34.1,29.93,NW,304,4.2,21.0,93,0.05,,,0.05,VWS V14.01,2013-10-27 06:00:00,
2013-10-27 02:02:00,35.9,34.3,29.93,WNW,302,1.4,5.6,94,0.00,,,0.05,VWS V14.01,2013-10-27 06:02:00,
2013-10-27 02:07:00,36.0,34.4,29.93,NW,307,2.8,7.0,94,0.00,,,0.05,VWS V14.01,2013-10-27 06:07:00,
2013-10-27 02:12:00,35.9,34.1,29.93,WNW,295,0.0,8.4,93,0.00,,,0.05,VWS V14.01,2013-10-27 06:12:00,
2013-10-27 02:17:00,35.7,33.9,29.93,WSW,246,1.4,8.4,93,0.00,,,0.05,VWS V14.01,2013-10-27 06:17:00,
2013-10-27 02:22:00,35.4,33.8,29.93,South,189,2.8,8.4,94,0.01,,,0.06,VWS V14.01,2013-10-27 06:22:00,
2013-10-27 02:27:00,35.0,33.5,29.93,SW,215,2.8,8.4,94,0.01,,,0.06,VWS V14.01,2013-10-27 06:27:00,
2013-10-27 02:32:00,34.8,33.2,29.93,West,267,2.8,8.4,94,0.01,,,0.06,VWS V14.01,2013-10-27 06:32:00,
2013-10-27 02:37:00,34.9,33.6,29.93,WSW,250,1.4,8.4,95,0.01,,,0.06,VWS V14.01,2013-10-27 06:37:00,
2013-10-27 02:42:00,34.9,33.3,29.93,West,259,1.4,8.4,94,0.01,,,0.06,VWS V14.01,2013-10-27 06:42:00,
2013-10-27 02:47:00,34.8,33.2,29.93,WSW,238,2.8,8.4,94,0.01,,,0.06,VWS V14.01,2013-10-27 06:47:00,
2013-10-27 02:52:00,34.7,33.2,29.93,SW,226,1.4,8.4,94,0.01,,,0.06,VWS V14.01,2013-10-27 06:52:00,
2013-10-27 02:57:00,34.5,33.2,29.92,WSW,240,1.4,8.4,95,0.01,,,0.06,VWS V14.01,2013-10-27 06:57:00,
2013-10-27 03:00:00,35.9,34.1,29.93,NW,304,4.2,21.0,93,0.05,,,0.05,VWS V14.01,2013-10-27 07:00:00,
2013-10-27 03:02:00,34.5,33.2,29.93,South,170,2.8,8.4,95,0.01,,,0.06,VWS V14.01,2013-10-27 07:02:00,
2013-10-27 03:07:00,34.3,33.0,29.93,SSW,194,2.8,8.4,95,0.01,,,0.06,VWS V14.01,2013-10-27 07:07:00,
2013-10-27 03:12:00,34.2,32.9,29.93,WSW,255,2.8,8.4,95,0.01,,,0.06,VWS V14.01,2013-10-27 07:12:00,
2013-10-27 03:17:00,34.4,33.1,29.93,West,264,2.8,8.4,95,0.02,,,0.07,VWS V14.01,2013-10-27 07:17:00,
2013-10-27 03:22:00,34.4,32.9,29.93,West,259,1.4,8.4,94,0.02,,,0.07,VWS V14.01,2013-10-27 07:22:00,
2013-10-27 03:27:00,34.3,32.8,29.93,NW,315,0.0,8.4,94,0.02,,,0.07,VWS V14.01,2013-10-27 07:27:00,
2013-10-27 03:32:00,34.0,32.5,29.93,West,263,1.4,8.4,94,0.02,,,0.07,VWS V14.01,2013-10-27 07:32:00,
2013-10-27 03:37:00,33.8,32.3,29.93,WNW,283,2.8,8.4,94,0.02,,,0.07,VWS V14.01,2013-10-27 07:37:00,
2013-10-27 03:42:00,33.7,32.2,29.93,WSW,253,1.4,8.4,94,0.02,,,0.07,VWS V14.01,2013-10-27 07:42:00,
2013-10-27 03:47:00,33.8,32.3,29.93,WSW,239,0.0,8.4,94,0.02,,,0.07,VWS V14.01,2013-10-27 07:47:00,
2013-10-27 03:52:00,33.8,32.3,29.93,WSW,245,0.0,8.4,94,0.02,,,0.07,VWS V14.01,2013-10-27 07:52:00,
2013-10-27 03:57:00,33.8,32.3,29.93,SSW,206,2.8,8.4,94,0.02,,,0.07,VWS V14.01,2013-10-27 07:57:00,
2013-10-27 04:00:00,33.7,32.2,29.93,SW,226,2.8,8.4,94,0.02,,,0.07,VWS V14.01,2013-10-27 08:00:00,
2013-10-27 04:02:00,33.8,32.3,29.93,WSW,245,2.8,4.2,94,0.00,,,0.07,VWS V14.01,2013-10-27 08:02:00,
2013-10-27 04:07:00,33.8,32.3,29.93,SSW,195,0.0,5.6,94,0.00,,,0.07,VWS V14.01,2013-10-27 08:07:00,
2013-10-27 04:12:00,34.1,32.6,29.92,West,276,2.8,5.6,94,0.00,,,0.07,VWS V14.01,2013-10-27 08:12:00,
2013-10-27 04:17:00,34.4,32.9,29.92,West,273,2.8,5.6,94,0.00,,,0.07,VWS V14.01,2013-10-27 08:17:00,
2013-10-27 04:22:00,34.7,33.2,29.92,WNW,292,7.0,9.8,94,0.00,,,0.07,VWS V14.01,2013-10-27 08:22:00,
2013-10-27 04:27:00,34.8,33.0,29.92,WSW,250,0.0,9.8,93,0.00,,,0.07,VWS V14.01,2013-10-27 08:27:00,
2013-10-27 04:32:00,34.9,33.1,29.92,West,276,1.4,9.8,93,0.00,,,0.07,VWS V14.01,2013-10-27 08:32:00,
2013-10-27 04:37:00,34.9,33.1,29.92,WNW,284,2.8,9.8,93,0.00,,,0.07,VWS V14.01,2013-10-27 08:37:00,
2013-10-27 04:42:00,34.9,33.1,29.92,West,274,8.4,9.8,93,0.00,,,0.07,VWS V14.01,2013-10-27 08:42:00,
2013-10-27 04:47:00,34.9,33.1,29.92,WNW,285,8.4,9.8,93,0.00,,,0.07,VWS V14.01,2013-10-27 08:47:00,
2013-10-27 04:52:00,34.8,33.0,29.92,West,271,2.8,9.8,93,0.00,,,0.07,VWS V14.01,2013-10-27 08:52:00,
2013-10-27 04:57:00,34.8,33.0,29.92,WNW,285,7.0,9.8,93,0.00,,,0.07,VWS V14.01,2013-10-27 08:57:00,
2013-10-27 05:00:00,33.7,32.2,29.93,SW,226,2.8,8.4,94,0.02,,,0.07,VWS V14.01,2013-10-27 09:00:00,
2013-10-27 05:02:00,34.9,33.1,29.93,WSW,253,4.2,9.8,93,0.00,,,0.07,VWS V14.01,2013-10-27 09:02:00,
2013-10-27 05:07:00,34.8,33.0,29.93,WNW,288,2.8,9.8,93,0.00,,,0.07,VWS V14.01,2013-10-27 09:07:00,
2013-10-27 05:12:00,34.7,32.6,29.93,West,273,2.8,9.8,92,0.00,,,0.07,VWS V14.01,2013-10-27 09:12:00,
2013-10-27 05:17:00,34.5,32.4,29.93,West,280,2.8,9.8,92,0.00,,,0.07,VWS V14.01,2013-10-27 09:17:00,
2013-10-27 05:22:00,34.3,32.2,29.93,WSW,248,4.2,9.8,92,0.00,,,0.07,VWS V14.01,2013-10-27 09:22:00,
2013-10-27 05:27:00,34.1,32.0,29.93,WSW,250,2.8,9.8,92,0.00,,,0.07,VWS V14.01,2013-10-27 09:27:00,
2013-10-27 05:32:00,34.0,31.9,29.93,WSW,253,1.4,9.8,92,0.00,,,0.07,VWS V14.01,2013-10-27 09:32:00,
2013-10-27 05:37:00,33.9,32.1,29.93,West,278,4.2,9.8,93,0.00,,,0.07,VWS V14.01,2013-10-27 09:37:00,
2013-10-27 05:42:00,33.8,32.0,29.93,WSW,249,5.6,9.8,93,0.00,,,0.07,VWS V14.01,2013-10-27 09:42:00,
2013-10-27 05:47:00,33.7,31.9,29.93,WSW,256,1.4,9.8,93,0.00,,,0.07,VWS V14.01,2013-10-27 09:47:00,
2013-10-27 05:52:00,33.6,31.8,29.93,West,263,1.4,9.8,93,0.00,,,0.07,VWS V14.01,2013-10-27 09:52:00,
2013-10-27 05:57:00,33.5,32.0,29.93,WSW,253,2.8,9.8,94,0.00,,,0.07,VWS V14.01,2013-10-27 09:57:00,
2013-10-27 06:00:00,33.4,31.9,29.93,WSW,255,5.6,9.8,94,0.00,,,0.07,VWS V14.01,2013-10-27 10:00:00,
2013-10-27 06:02:00,33.4,31.9,29.93,WSW,249,4.2,7.0,94,0.00,,,0.07,VWS V14.01,2013-10-27 10:02:00,
2013-10-27 06:07:00,33.3,31.8,29.93,WSW,250,4.2,7.0,94,0.00,,,0.07,VWS V14.01,2013-10-27 10:07:00,
2013-10-27 06:12:00,33.3,31.8,29.93,WNW,284,1.4,9.8,94,0.00,,,0.07,VWS V14.01,2013-10-27 10:12:00,
2013-10-27 06:17:00,33.3,31.8,29.93,WSW,246,5.6,9.8,94,0.00,,,0.07,VWS V14.01,2013-10-27 10:17:00,
2013-10-27 06:22:00,33.4,31.9,29.93,WSW,257,1.4,9.8,94,0.00,,,0.07,VWS V14.01,2013-10-27 10:22:00,
2013-10-27 06:27:00,33.4,31.9,29.93,WNW,293,4.2,9.8,94,0.00,,,0.07,VWS V14.01,2013-10-27 10:27:00,
2013-10-27 06:32:00,33.5,32.0,29.93,West,269,1.4,9.8,94,0.00,,,0.07,VWS V14.01,2013-10-27 10:32:00,
2013-10-27 06:37:00,33.6,32.1,29.94,WNW,294,2.8,9.8,94,0.00,,,0.07,VWS V14.01,2013-10-27 10:37:00,
2013-10-27 06:42:00,33.7,32.2,29.94,West,269,2.8,9.8,94,0.00,,,0.07,VWS V14.01,2013-10-27 10:42:00,
2013-10-27 06:47:00,33.8,32.3,29.93,West,274,5.6,9.8,94,0.00,,,0.07,VWS V14.01,2013-10-27 10:47:00,
2013-10-27 06:52:00,33.9,32.4,29.93,NW,312,4.2,9.8,94,0.00,,,0.07,VWS V14.01,2013-10-27 10:52:00,
2013-10-27 06:57:00,33.9,32.4,29.93,West,271,1.4,9.8,94,0.00,,,0.07,VWS V14.01,2013-10-27 10:57:00,
2013-10-27 07:00:00,33.4,31.9,29.93,WSW,255,5.6,9.8,94,0.00,,,0.07,VWS V14.01,2013-10-27 11:00:00,
2013-10-27 07:02:00,33.9,32.4,29.93,WNW,287,1.4,9.8,94,0.00,,,0.07,VWS V14.01,2013-10-27 11:02:00,
2013-10-27 07:07:00,33.9,32.4,29.93,WSW,239,5.6,9.8,94,0.00,,,0.07,VWS V14.01,2013-10-27 11:07:00,
2013-10-27 07:12:00,34.0,32.5,29.93,WSW,253,1.4,9.8,94,0.00,,,0.07,VWS V14.01,2013-10-27 11:12:00,
2013-10-27 07:17:00,34.1,32.6,29.93,West,260,2.8,9.8,94,0.00,,,0.07,VWS V14.01,2013-10-27 11:17:00,
2013-10-27 07:22:00,34.1,32.6,29.93,WSW,239,1.4,9.8,94,0.00,,,0.07,VWS V14.01,2013-10-27 11:22:00,
2013-10-27 07:27:00,34.1,32.6,29.93,SW,226,2.8,9.8,94,0.00,,,0.07,VWS V14.01,2013-10-27 11:27:00,
2013-10-27 07:32:00,34.0,32.5,29.93,SW,225,0.0,9.8,94,0.00,,,0.07,VWS V14.01,2013-10-27 11:32:00,
2013-10-27 07:37:00,33.9,32.4,29.93,SW,228,1.4,9.8,94,0.00,,,0.07,VWS V14.01,2013-10-27 11:37:00,
2013-10-27 07:42:00,33.9,32.4,29.93,WSW,239,2.8,9.8,94,0.00,,,0.07,VWS V14.01,2013-10-27 11:42:00,
2013-10-27 07:47:00,33.9,32.4,29.92,WSW,249,4.2,9.8,94,0.00,,,0.07,VWS V14.01,2013-10-27 11:47:00,
2013-10-27 07:52:00,33.9,32.1,29.92,SSW,212,4.2,9.8,93,0.00,,,0.07,VWS V14.01,2013-10-27 11:52:00,
2013-10-27 07:57:00,33.9,32.1,29.92,SW,226,4.2,9.8,93,0.00,,,0.07,VWS V14.01,2013-10-27 11:57:00,
2013-10-27 08:00:00,33.9,32.1,29.92,WSW,246,4.2,9.8,93,0.00,,,0.07,VWS V14.01,2013-10-27 12:00:00,
2013-10-27 08:02:00,33.9,32.1,29.92,West,271,0.0,4.2,93,0.00,,,0.07,VWS V14.01,2013-10-27 12:02:00,
2013-10-27 08:07:00,33.8,32.0,29.92,WSW,248,5.6,5.6,93,0.00,,,0.07,VWS V14.01,2013-10-27 12:07:00,
2013-10-27 08:12:00,33.8,32.0,29.92,WSW,239,2.8,7.0,93,0.00,,,0.07,VWS V14.01,2013-10-27 12:12:00,
2013-10-27 08:17:00,33.8,32.0,29.92,SW,232,2.8,7.0,93,0.00,,,0.07,VWS V14.01,2013-10-27 12:17:00,
2013-10-27 08:22:00,33.9,32.1,29.92,WSW,246,5.6,7.0,93,0.00,,,0.07,VWS V14.01,2013-10-27 12:22:00,
2013-10-27 08:27:00,34.0,32.2,29.92,SW,229,1.4,9.8,93,0.00,,,0.07,VWS V14.01,2013-10-27 12:27:00,
2013-10-27 08:31:00,34.0,32.2,29.92,WSW,255,2.8,9.8,93,0.00,,,0.07,VWS V14.01,2013-10-27 12:31:00,
2013-10-27 08:36:00,34.1,32.3,29.93,WSW,245,1.4,9.8,93,0.00,,,0.07,VWS V14.01,2013-10-27 12:36:00,
2013-10-27 08:41:00,34.1,32.3,29.93,WSW,249,4.2,9.8,93,0.00,,,0.07,VWS V14.01,2013-10-27 12:41:00,
2013-10-27 08:46:00,34.2,32.4,29.93,West,276,8.4,11.2,93,0.01,,,0.08,VWS V14.01,2013-10-27 12:46:00,
2013-10-27 08:51:00,34.4,32.3,29.93,WSW,243,2.8,11.2,92,0.01,,,0.08,VWS V14.01,2013-10-27 12:51:00,
2013-10-27 08:56:00,34.4,32.3,29.93,West,264,2.8,11.2,92,0.01,,,0.08,VWS V14.01,2013-10-27 12:56:00,
2013-10-27 09:00:00,33.9,32.1,29.92,WSW,246,4.2,9.8,93,0.00,,,0.07,VWS V14.01,2013-10-27 13:00:00,
2013-10-27 09:01:00,34.5,32.4,29.93,WSW,253,5.6,11.2,92,0.01,,,0.08,VWS V14.01,2013-10-27 13:01:00,
2013-10-27 09:06:00,34.7,32.6,29.93,WSW,253,1.4,11.2,92,0.01,,,0.08,VWS V14.01,2013-10-27 13:06:00,
2013-10-27 09:11:00,34.8,32.7,29.94,SW,225,5.6,11.2,92,0.01,,,0.08,VWS V14.01,2013-10-27 13:11:00,
2013-10-27 09:16:00,34.9,32.8,29.94,SW,216,2.8,11.2,92,0.01,,,0.08,VWS V14.01,2013-10-27 13:16:00,
2013-10-27 09:21:00,35.0,32.6,29.94,SW,226,2.8,11.2,91,0.01,,,0.08,VWS V14.01,2013-10-27 13:21:00,
2013-10-27 09:26:00,35.2,32.8,29.94,WSW,239,2.8,11.2,91,0.01,,,0.08,VWS V14.01,2013-10-27 13:26:00,
2013-10-27 09:31:00,35.3,32.9,29.94,West,277,7.0,11.2,91,0.02,,,0.09,VWS V14.01,2013-10-27 13:31:00,
2013-10-27 09:36:00,35.4,33.0,29.94,South,191,4.2,11.2,91,0.02,,,0.09,VWS V14.01,2013-10-27 13:36:00,
2013-10-27 09:41:00,35.5,33.1,29.94,SW,235,4.2,12.6,91,0.02,,,0.09,VWS V14.01,2013-10-27 13:41:00,
2013-10-27 09:46:00,35.6,33.2,29.94,West,266,1.4,12.6,91,0.02,,,0.09,VWS V14.01,2013-10-27 13:46:00,
2013-10-27 09:51:00,35.7,33.1,29.94,SW,214,1.4,12.6,90,0.02,,,0.09,VWS V14.01,2013-10-27 13:51:00,
2013-10-27 09:56:00,35.8,33.4,29.94,WSW,256,2.8,12.6,91,0.02,,,0.09,VWS V14.01,2013-10-27 13:56:00,
2013-10-27 10:00:00,35.9,33.5,29.94,WSW,243,7.0,12.6,91,0.02,,,0.09,VWS V14.01,2013-10-27 14:00:00,
2013-10-27 10:01:00,35.9,33.5,29.94,SW,218,5.6,8.4,91,0.01,,,0.10,VWS V14.01,2013-10-27 14:01:00,
2013-10-27 10:06:00,36.0,33.4,29.94,WSW,251,2.8,11.2,90,0.01,,,0.10,VWS V14.01,2013-10-27 14:06:00,
2013-10-27 10:11:00,36.1,33.7,29.94,WSW,240,9.8,11.2,91,0.01,,,0.10,VWS V14.01,2013-10-27 14:11:00,
2013-10-27 10:16:00,36.1,33.5,29.94,SSW,212,5.6,11.2,90,0.01,,,0.10,VWS V14.01,2013-10-27 14:16:00,
2013-10-27 10:21:00,36.3,33.7,29.94,SW,235,5.6,12.6,90,0.01,,,0.10,VWS V14.01,2013-10-27 14:21:00,
2013-10-27 10:26:00,36.3,33.7,29.94,SW,216,1.4,12.6,90,0.01,,,0.10,VWS V14.01,2013-10-27 14:26:00,
2013-10-27 10:31:00,36.4,33.8,29.94,SW,235,2.8,12.6,90,0.02,,,0.11,VWS V14.01,2013-10-27 14:31:00,
2013-10-27 10:36:00,36.5,33.8,29.94,WSW,243,7.0,12.6,90,0.02,,,0.11,VWS V14.01,2013-10-27 14:36:00,
2013-10-27 10:41:00,36.7,34.3,29.94,SW,230,7.0,12.6,91,0.02,,,0.11,VWS V14.01,2013-10-27 14:41:00,
2013-10-27 10:46:00,36.9,34.2,29.94,WSW,250,7.0,12.6,90,0.02,,,0.11,VWS V14.01,2013-10-27 14:46:00,
2013-10-27 10:51:00,37.1,34.2,29.94,WSW,253,2.8,12.6,89,0.02,,,0.11,VWS V14.01,2013-10-27 14:51:00,
2013-10-27 10:56:00,37.3,34.1,29.94,WSW,256,4.2,12.6,88,0.03,,,0.12,VWS V14.01,2013-10-27 14:56:00,
2013-10-27 11:00:00,35.9,33.5,29.94,WSW,243,7.0,12.6,91,0.02,,,0.09,VWS V14.01,2013-10-27 15:00:00,
2013-10-27 11:01:00,37.6,34.4,29.94,West,259,1.4,12.6,88,0.03,,,0.12,VWS V14.01,2013-10-27 15:01:00,
2013-10-27 11:06:00,37.9,34.7,29.94,WSW,242,8.4,12.6,88,0.03,,,0.12,VWS V14.01,2013-10-27 15:06:00,
2013-10-27 11:11:00,38.1,34.9,29.93,SW,219,1.4,12.6,88,0.03,,,0.12,VWS V14.01,2013-10-27 15:11:00,
2013-10-27 11:16:00,38.2,34.7,29.93,WSW,249,4.2,12.6,87,0.04,,,0.13,VWS V14.01,2013-10-27 15:16:00,
2013-10-27 11:21:00,38.4,34.9,29.93,West,281,1.4,12.6,87,0.04,,,0.13,VWS V14.01,2013-10-27 15:21:00,
2013-10-27 11:26:00,38.7,35.2,29.94,SW,229,7.0,12.6,87,0.04,,,0.13,VWS V14.01,2013-10-27 15:26:00,
2013-10-27 11:31:00,38.8,34.7,29.94,WSW,256,4.2,12.6,85,0.04,,,0.13,VWS V14.01,2013-10-27 15:31:00,
2013-10-27 11:36:00,39.0,34.9,29.94,WSW,256,2.8,12.6,85,0.04,,,0.13,VWS V14.01,2013-10-27 15:36:00,
2013-10-27 11:41:00,39.4,35.3,29.93,West,266,1.4,12.6,85,0.04,,,0.13,VWS V14.01,2013-10-27 15:41:00,
2013-10-27 11:46:00,39.9,34.9,29.93,WSW,245,7.0,12.6,82,0.05,,,0.14,VWS V14.01,2013-10-27 15:46:00,
2013-10-27 11:51:00,39.9,34.9,29.93,West,259,1.4,14.0,82,0.05,,,0.14,VWS V14.01,2013-10-27 15:51:00,
2013-10-27 11:56:00,39.9,34.9,29.93,WSW,249,2.8,14.0,82,0.05,,,0.14,VWS V14.01,2013-10-27 15:56:00,
2013-10-27 12:00:00,40.2,35.2,29.93,SW,224,5.6,14.0,82,0.05,,,0.14,VWS V14.01,2013-10-27 16:00:00,
2013-10-27 12:01:00,40.3,35.2,29.93,SW,229,0.0,5.6,82,0.00,,,0.14,VWS V14.01,2013-10-27 16:01:00,
2013-10-27 12:06:00,40.7,35.6,29.93,SW,221,2.8,11.2,82,0.00,,,0.14,VWS V14.01,2013-10-27 16:06:00,
2013-10-27 12:11:00,41.1,35.4,29.93,SW,229,8.4,11.2,80,0.00,,,0.14,VWS V14.01,2013-10-27 16:11:00,
2013-10-27 12:16:00,41.5,36.1,29.93,WSW,250,1.4,11.2,81,0.00,,,0.14,VWS V14.01,2013-10-27 16:16:00,
2013-10-27 12:21:00,41.9,36.2,29.92,South,191,1.4,11.2,80,0.00,,,0.14,VWS V14.01,2013-10-27 16:21:00,
2013-10-27 12:26:00,42.2,36.5,29.92,SSW,197,2.8,11.2,80,0.00,,,0.14,VWS V14.01,2013-10-27 16:26:00,
2013-10-27 12:31:00,42.2,36.5,29.92,West,266,1.4,11.2,80,0.00,,,0.14,VWS V14.01,2013-10-27 16:31:00,
2013-10-27 12:35:00,42.5,36.5,29.92,WSW,245,1.4,11.2,79,0.00,,,0.14,VWS V14.01,2013-10-27 16:35:00,
2013-10-27 12:40:00,42.8,35.8,29.92,West,265,1.4,11.2,76,0.00,,,0.14,VWS V14.01,2013-10-27 16:40:00,
2013-10-27 12:45:00,42.5,35.5,29.91,SW,224,2.8,11.2,76,0.00,,,0.14,VWS V14.01,2013-10-27 16:45:00,
2013-10-27 12:50:00,42.7,35.7,29.91,SW,229,7.0,11.2,76,0.00,,,0.14,VWS V14.01,2013-10-27 16:50:00,
2013-10-27 12:55:00,42.7,36.0,29.91,SW,219,2.8,11.2,77,0.00,,,0.14,VWS V14.01,2013-10-27 16:55:00,
2013-10-27 13:00:00,42.9,36.2,29.91,WSW,245,5.6,11.2,77,0.00,,,0.14,VWS V14.01,2013-10-27 17:00:00,
2013-10-27 13:05:00,43.3,36.3,29.91,SSE,155,5.6,11.2,76,0.00,,,0.14,VWS V14.01,2013-10-27 17:05:00,
2013-10-27 13:10:00,43.1,35.4,29.91,SSW,197,5.6,12.6,74,0.00,,,0.14,VWS V14.01,2013-10-27 17:10:00,
2013-10-27 13:15:00,43.3,35.6,29.91,WSW,255,8.4,12.6,74,0.00,,,0.14,VWS V14.01,2013-10-27 17:15:00,
2013-10-27 13:20:00,43.1,35.7,29.91,WSW,256,1.4,12.6,75,0.00,,,0.14,VWS V14.01,2013-10-27 17:20:00,
2013-10-27 13:25:00,43.3,34.9,29.91,WNW,291,12.6,12.6,72,0.00,,,0.14,VWS V14.01,2013-10-27 17:25:00,
2013-10-27 13:30:00,43.1,35.4,29.91,WSW,248,2.8,12.6,74,0.00,,,0.14,VWS V14.01,2013-10-27 17:30:00,
2013-10-27 13:35:00,43.0,34.2,29.90,WSW,253,5.6,12.6,71,0.00,,,0.14,VWS V14.01,2013-10-27 17:35:00,
2013-10-27 13:40:00,43.0,35.0,29.90,WSW,255,5.6,12.6,73,0.00,,,0.14,VWS V14.01,2013-10-27 17:40:00,
2013-10-27 13:45:00,43.0,34.2,29.90,West,260,5.6,14.0,71,0.00,,,0.14,VWS V14.01,2013-10-27 17:45:00,
2013-10-27 13:50:00,42.9,34.5,29.90,WSW,253,4.2,14.0,72,0.00,,,0.14,VWS V14.01,2013-10-27 17:50:00,
2013-10-27 13:55:00,43.0,35.0,29.89,WSW,256,2.8,14.0,73,0.00,,,0.14,VWS V14.01,2013-10-27 17:55:00,
2013-10-27 14:00:00,42.9,34.2,29.90,WSW,249,5.6,7.0,71,0.00,,,0.14,VWS V14.01,2013-10-27 18:00:00,
2013-10-27 14:05:00,42.8,33.3,29.89,West,264,4.2,9.8,69,0.00,,,0.14,VWS V14.01,2013-10-27 18:05:00,
2013-10-27 14:10:00,42.7,34.0,29.89,SSW,197,5.6,12.6,71,0.00,,,0.14,VWS V14.01,2013-10-27 18:10:00,
2013-10-27 14:15:00,42.5,34.1,29.89,SW,229,4.2,12.6,72,0.00,,,0.14,VWS V14.01,2013-10-27 18:15:00,
2013-10-27 14:20:00,42.2,33.8,29.89,WNW,285,1.4,12.6,72,0.00,,,0.14,VWS V14.01,2013-10-27 18:20:00,
2013-10-27 14:25:00,42.0,34.3,29.89,West,276,2.8,12.6,74,0.00,,,0.14,VWS V14.01,2013-10-27 18:25:00,
2013-10-27 14:30:00,41.9,34.6,29.88,WNW,285,2.8,12.6,75,0.00,,,0.14,VWS V14.01,2013-10-27 18:30:00,
2013-10-27 14:35:00,41.9,35.2,29.88,WSW,245,2.8,12.6,77,0.00,,,0.14,VWS V14.01,2013-10-27 18:35:00,
2013-10-27 14:40:00,41.9,34.9,29.88,WSW,249,0.0,12.6,76,0.00,,,0.14,VWS V14.01,2013-10-27 18:40:00,
2013-10-27 14:45:00,41.9,34.9,29.88,SW,235,1.4,12.6,76,0.00,,,0.14,VWS V14.01,2013-10-27 18:45:00,
2013-10-27 14:50:00,41.9,35.5,29.88,SW,236,4.2,12.6,78,0.00,,,0.14,VWS V14.01,2013-10-27 18:50:00,
2013-10-27 14:55:00,42.0,36.0,29.88,WSW,238,0.0,12.6,79,0.00,,,0.14,VWS V14.01,2013-10-27 18:55:00,
2013-10-27 15:00:00,42.2,36.5,29.87,SSE,157,0.0,12.6,80,0.00,,,0.14,VWS V14.01,2013-10-27 19:00:00,
2013-10-27 15:05:00,42.3,36.9,29.87,SW,232,0.0,12.6,81,0.00,,,0.14,VWS V14.01,2013-10-27 19:05:00,
2013-10-27 15:10:00,42.4,36.7,29.87,SW,232,0.0,12.6,80,0.00,,,0.14,VWS V14.01,2013-10-27 19:10:00,
2013-10-27 15:15:00,42.5,36.8,29.87,ESE,112,1.4,12.6,80,0.00,,,0.14,VWS V14.01,2013-10-27 19:15:00,
2013-10-27 15:20:00,42.5,36.8,29.86,SSE,167,0.0,12.6,80,0.00,,,0.14,VWS V14.01,2013-10-27 19:20:00,
2013-10-27 15:25:00,42.6,36.5,29.86,SSW,198,1.4,12.6,79,0.00,,,0.14,VWS V14.01,2013-10-27 19:25:00,
2013-10-27 15:30:00,42.6,36.9,29.86,SE,141,0.0,12.6,80,0.00,,,0.14,VWS V14.01,2013-10-27 19:30:00,
2013-10-27 15:35:00,42.9,37.2,29.86,South,172,2.8,12.6,80,0.00,,,0.14,VWS V14.01,2013-10-27 19:35:00,
2013-10-27 15:40:00,43.0,36.9,29.86,South,169,4.2,12.6,79,0.00,,,0.14,VWS V14.01,2013-10-27 19:40:00,
2013-10-27 15:45:00,43.1,36.7,29.86,East,101,1.4,12.6,78,0.00,,,0.14,VWS V14.01,2013-10-27 19:45:00,
2013-10-27 15:50:00,43.1,36.7,29.85,SSE,165,4.2,12.6,78,0.00,,,0.14,VWS V14.01,2013-10-27 19:50:00,
2013-10-27 15:55:00,43.0,36.9,29.85,South,169,2.8,12.6,79,0.00,,,0.14,VWS V14.01,2013-10-27 19:55:00,
2013-10-27 16:00:00,42.9,36.8,29.85,SE,146,2.8,4.2,79,0.00,,,0.14,VWS V14.01,2013-10-27 20:00:00,
2013-10-27 16:05:00,42.9,37.2,29.86,South,169,1.4,5.6,80,0.00,,,0.14,VWS V14.01,2013-10-27 20:05:00,
2013-10-27 16:10:00,43.1,37.7,29.86,SSW,213,0.0,5.6,81,0.00,,,0.14,VWS V14.01,2013-10-27 20:10:00,
2013-10-27 16:15:00,43.2,37.8,29.86,SSE,149,1.4,5.6,81,0.00,,,0.14,VWS V14.01,2013-10-27 20:15:00,
2013-10-27 16:20:00,43.2,37.5,29.86,SSE,167,2.8,5.6,80,0.00,,,0.14,VWS V14.01,2013-10-27 20:20:00,
2013-10-27 16:25:00,43.1,38.0,29.86,SSE,164,4.2,5.6,82,0.00,,,0.14,VWS V14.01,2013-10-27 20:25:00,
2013-10-27 16:30:00,43.1,37.4,29.86,SSW,197,1.4,9.8,80,0.00,,,0.14,VWS V14.01,2013-10-27 20:30:00,
2013-10-27 16:35:00,43.3,37.6,29.87,SE,139,0.0,9.8,80,0.00,,,0.14,VWS V14.01,2013-10-27 20:35:00,
2013-10-27 16:40:00,43.3,35.9,29.87,West,264,5.6,21.0,75,0.00,,,0.14,VWS V14.01,2013-10-27 20:40:00,
2013-10-27 16:45:00,43.3,36.3,29.87,SE,139,4.2,21.0,76,0.00,,,0.14,VWS V14.01,2013-10-27 20:45:00,
2013-10-27 16:50:00,43.2,35.8,29.87,SW,226,4.2,21.0,75,0.00,,,0.14,VWS V14.01,2013-10-27 20:50:00,
2013-10-27 16:55:00,43.0,35.6,29.87,SW,235,21.0,28.0,75,0.00,,,0.14,VWS V14.01,2013-10-27 20:55:00,
2013-10-27 17:00:00,42.6,35.9,29.87,West,273,7.0,28.0,77,0.00,,,0.14,VWS V14.01,2013-10-27 21:00:00,
2013-10-27 17:05:00,42.3,35.3,29.87,NW,307,14.0,28.0,76,0.00,,,0.14,VWS V14.01,2013-10-27 21:05:00,
2013-10-27 17:10:00,41.9,35.2,29.87,WNW,290,16.8,28.0,77,0.00,,,0.14,VWS V14.01,2013-10-27 21:10:00,
2013-10-27 17:15:00,41.7,35.4,29.88,WSW,249,5.6,28.0,78,0.00,,,0.14,VWS V14.01,2013-10-27 21:15:00,
2013-10-27 17:20:00,41.6,35.3,29.88,WSW,256,7.0,28.0,78,0.00,,,0.14,VWS V14.01,2013-10-27 21:20:00,
2013-10-27 17:25:00,41.5,35.5,29.88,WSW,257,4.2,28.0,79,0.00,,,0.14,VWS V14.01,2013-10-27 21:25:00,
2013-10-27 17:30:00,41.2,35.5,29.88,WSW,245,4.2,28.0,80,0.00,,,0.14,VWS V14.01,2013-10-27 21:30:00,
2013-10-27 17:35:00,41.0,35.9,29.88,WSW,247,12.6,28.0,82,0.00,,,0.14,VWS V14.01,2013-10-27 21:35:00,
2013-10-27 17:40:00,40.9,35.8,29.88,West,266,2.8,28.0,82,0.00,,,0.14,VWS V14.01,2013-10-27 21:40:00,
2013-10-27 17:45:00,40.7,36.0,29.88,SW,219,2.8,28.0,83,0.00,,,0.14,VWS V14.01,2013-10-27 21:45:00,
2013-10-27 17:50:00,40.7,36.0,29.88,WSW,240,1.4,28.0,83,0.00,,,0.14,VWS V14.01,2013-10-27 21:50:00,
2013-10-27 17:55:00,40.7,36.0,29.87,SW,225,4.2,28.0,83,0.00,,,0.14,VWS V14.01,2013-10-27 21:55:00,
2013-10-27 18:00:00,40.6,35.8,29.88,WSW,248,5.6,8.4,83,0.00,,,0.14,VWS V14.01,2013-10-27 22:00:00,
2013-10-27 18:05:00,40.6,35.8,29.88,WNW,283,0.0,8.4,83,0.00,,,0.14,VWS V14.01,2013-10-27 22:05:00,
2013-10-27 18:10:00,40.7,35.6,29.88,WNW,283,4.2,11.2,82,0.00,,,0.14,VWS V14.01,2013-10-27 22:10:00,
2013-10-27 18:15:00,40.8,35.4,29.88,West,270,4.2,11.2,81,0.00,,,0.14,VWS V14.01,2013-10-27 22:15:00,
2013-10-27 18:20:00,40.9,35.5,29.88,WNW,285,4.2,11.2,81,0.00,,,0.14,VWS V14.01,2013-10-27 22:20:00,
2013-10-27 18:25:00,41.0,35.6,29.88,WNW,285,9.8,11.2,81,0.00,,,0.14,VWS V14.01,2013-10-27 22:25:00,
2013-10-27 18:30:00,41.2,35.5,29.88,West,278,1.4,11.2,80,0.00,,,0.14,VWS V14.01,2013-10-27 22:30:00,
2013-10-27 18:35:00,41.2,35.2,29.89,WNW,285,1.4,11.2,79,0.00,,,0.14,VWS V14.01,2013-10-27 22:35:00,
2013-10-27 18:40:00,41.3,35.6,29.89,West,259,1.4,11.2,80,0.00,,,0.14,VWS V14.01,2013-10-27 22:40:00,
2013-10-27 18:45:00,41.3,35.6,29.89,WNW,283,8.4,11.2,80,0.00,,,0.14,VWS V14.01,2013-10-27 22:45:00,
2013-10-27 18:50:00,41.3,35.6,29.89,WSW,245,1.4,11.2,80,0.00,,,0.14,VWS V14.01,2013-10-27 22:50:00,
2013-10-27 18:55:00,41.2,35.5,29.90,NW,308,4.2,11.2,80,0.00,,,0.14,VWS V14.01,2013-10-27 22:55:00,
2013-10-27 19:00:00,41.2,35.8,29.90,WNW,302,0.0,11.2,81,0.00,,,0.14,VWS V14.01,2013-10-27 23:00:00,
2013-10-27 19:05:00,41.2,35.8,29.90,West,264,4.2,11.2,81,0.00,,,0.14,VWS V14.01,2013-10-27 23:05:00,
2013-10-27 19:10:00,41.2,35.8,29.90,WNW,284,0.0,11.2,81,0.00,,,0.14,VWS V14.01,2013-10-27 23:10:00,
2013-10-27 19:15:00,41.2,35.8,29.90,West,262,2.8,11.2,81,0.00,,,0.14,VWS V14.01,2013-10-27 23:15:00,
2013-10-27 19:20:00,41.3,35.6,29.91,West,274,4.2,11.2,80,0.00,,,0.14,VWS V14.01,2013-10-27 23:20:00,
2013-10-27 19:25:00,41.5,35.8,29.91,NW,322,0.0,11.2,80,0.00,,,0.14,VWS V14.01,2013-10-27 23:25:00,
2013-10-27 19:30:00,41.5,35.8,29.91,WSW,250,2.8,11.2,80,0.00,,,0.14,VWS V14.01,2013-10-27 23:30:00,
2013-10-27 19:35:00,41.7,35.7,29.91,WSW,249,2.8,11.2,79,0.00,,,0.14,VWS V14.01,2013-10-27 23:35:00,
2013-10-27 19:40:00,41.8,35.8,29.91,West,276,0.0,11.2,79,0.00,,,0.14,VWS V14.01,2013-10-27 23:40:00,
2013-10-27 19:45:00,41.8,35.8,29.92,WNW,288,1.4,11.2,79,0.00,,,0.14,VWS V14.01,2013-10-27 23:45:00,
2013-10-27 19:50:00,41.8,36.1,29.92,WNW,300,0.0,11.2,80,0.00,,,0.14,VWS V14.01,2013-10-27 23:50:00,
2013-10-27 19:55:00,41.9,36.2,29.92,WSW,255,0.0,11.2,80,0.00,,,0.14,VWS V14.01,2013-10-27 23:55:00,
2013-10-27 20:00:00,41.9,35.9,29.92,West,259,5.6,5.6,79,0.00,,,0.14,VWS V14.01,2013-10-28 00:00:00,
2013-10-27 20:05:00,42.0,36.0,29.92,NNW,339,1.4,9.8,79,0.00,,,0.14,VWS V14.01,2013-10-28 00:05:00,
2013-10-27 20:10:00,42.0,35.7,29.92,WNW,283,5.6,9.8,78,0.00,,,0.14,VWS V14.01,2013-10-28 00:10:00,
2013-10-27 20:15:00,42.1,35.8,29.92,West,276,1.4,11.2,78,0.00,,,0.14,VWS V14.01,2013-10-28 00:15:00,
2013-10-27 20:20:00,42.0,35.7,29.92,NW,305,2.8,11.2,78,0.00,,,0.14,VWS V14.01,2013-10-28 00:20:00,
2013-10-27 20:25:00,42.0,35.7,29.92,West,270,1.4,11.2,78,0.00,,,0.14,VWS V14.01,2013-10-28 00:25:00,
2013-10-27 20:30:00,42.1,35.8,29.92,West,273,4.2,11.2,78,0.00,,,0.14,VWS V14.01,2013-10-28 00:30:00,
2013-10-27 20:35:00,42.1,35.4,29.92,West,278,5.6,11.2,77,0.00,,,0.14,VWS V14.01,2013-10-28 00:35:00,
2013-10-27 20:40:00,42.3,35.0,29.93,NW,307,8.4,18.2,75,0.00,,,0.14,VWS V14.01,2013-10-28 00:40:00,
2013-10-27 20:45:00,42.4,34.7,29.93,WNW,285,5.6,18.2,74,0.00,,,0.14,VWS V14.01,2013-10-28 00:45:00,
2013-10-27 20:50:00,42.4,34.7,29.93,North,349,12.6,18.2,74,0.00,,,0.14,VWS V14.01,2013-10-28 00:50:00,
2013-10-27 20:55:00,42.6,34.9,29.93,NNW,334,8.4,18.2,74,0.00,,,0.14,VWS V14.01,2013-10-28 00:55:00,
2013-10-27 21:00:00,42.6,34.9,29.93,North,1,4.2,18.2,74,0.00,,,0.14,VWS V14.01,2013-10-28 01:00:00,
2013-10-27 21:05:00,42.5,34.8,29.93,WSW,245,7.0,18.2,74,0.00,,,0.14,VWS V14.01,2013-10-28 01:05:00,
2013-10-27 21:10:00,42.5,35.2,29.94,SW,215,1.4,18.2,75,0.00,,,0.14,VWS V14.01,2013-10-28 01:10:00,
2013-10-27 21:15:00,42.6,35.6,29.94,NW,319,11.2,18.2,76,0.00,,,0.14,VWS V14.01,2013-10-28 01:15:00,
2013-10-27 21:20:00,42.6,35.6,29.94,WNW,300,16.8,21.0,76,0.00,,,0.14,VWS V14.01,2013-10-28 01:20:00,
2013-10-27 21:25:00,42.6,35.6,29.94,SSE,165,1.4,21.0,76,0.00,,,0.14,VWS V14.01,2013-10-28 01:25:00,
2013-10-27 21:30:00,42.5,35.8,29.95,West,269,11.2,21.0,77,0.00,,,0.14,VWS V14.01,2013-10-28 01:30:00,
2013-10-27 21:35:00,42.5,36.1,29.95,SSW,194,8.4,21.0,78,0.00,,,0.14,VWS V14.01,2013-10-28 01:35:00,
2013-10-27 21:40:00,42.5,36.1,29.95,NW,309,5.6,21.0,78,0.00,,,0.14,VWS V14.01,2013-10-28 01:40:00,
2013-10-27 21:45:00,42.4,36.4,29.95,NW,309,8.4,21.0,79,0.00,,,0.14,VWS V14.01,2013-10-28 01:45:00,
2013-10-27 21:50:00,42.2,36.8,29.96,NW,313,7.0,21.0,81,0.00,,,0.14,VWS V14.01,2013-10-28 01:50:00,
2013-10-27 21:55:00,42.2,37.1,29.96,NNW,334,1.4,21.0,82,0.00,,,0.14,VWS V14.01,2013-10-28 01:55:00,
2013-10-27 22:00:00,42.1,37.3,29.96,West,276,5.6,7.0,83,0.00,,,0.14,VWS V14.01,2013-10-28 02:00:00,
2013-10-27 22:05:00,42.0,37.2,29.96,WSW,250,5.6,18.2,83,0.00,,,0.14,VWS V14.01,2013-10-28 02:05:00,
2013-10-27 22:10:00,42.0,37.2,29.97,SSW,203,7.0,18.2,83,0.00,,,0.14,VWS V14.01,2013-10-28 02:10:00,
2013-10-27 22:15:00,41.9,37.1,29.96,WNW,283,7.0,18.2,83,0.00,,,0.14,VWS V14.01,2013-10-28 02:15:00,
2013-10-27 22:20:00,42.0,36.9,29.97,North,359,5.6,19.6,82,0.00,,,0.14,VWS V14.01,2013-10-28 02:20:00,
2013-10-27 22:25:00,42.0,36.9,29.97,NW,318,18.2,19.6,82,0.00,,,0.14,VWS V14.01,2013-10-28 02:25:00,
2013-10-27 22:30:00,42.1,37.0,29.97,NW,319,8.4,23.8,82,0.00,,,0.14,VWS V14.01,2013-10-28 02:30:00,
2013-10-27 22:35:00,42.1,36.7,29.98,WSW,256,2.8,23.8,81,0.00,,,0.14,VWS V14.01,2013-10-28 02:35:00,
2013-10-27 22:40:00,42.1,36.7,29.97,NW,321,11.2,23.8,81,0.00,,,0.14,VWS V14.01,2013-10-28 02:40:00,
2013-10-27 22:45:00,41.9,37.1,29.98,North,355,18.2,23.8,83,0.00,,,0.14,VWS V14.01,2013-10-28 02:45:00,
2013-10-27 22:50:00,40.9,36.8,29.98,ESE,103,4.2,23.8,85,0.00,,,0.14,VWS V14.01,2013-10-28 02:50:00,
2013-10-27 22:55:00,40.5,36.7,29.98,NNW,333,7.0,26.6,86,0.00,,,0.14,VWS V14.01,2013-10-28 02:55:00,
2013-10-27 23:00:00,40.5,36.9,29.98,WSW,245,2.8,26.6,87,0.00,,,0.14,VWS V14.01,2013-10-28 03:00:00,
2013-10-27 23:05:00,40.7,36.5,29.98,North,356,8.4,26.6,85,0.00,,,0.14,VWS V14.01,2013-10-28 03:05:00,
2013-10-27 23:10:00,41.0,36.5,29.99,NW,305,8.4,26.6,84,0.00,,,0.14,VWS V14.01,2013-10-28 03:10:00,
2013-10-27 23:15:00,40.7,36.8,30.00,NW,321,16.8,30.8,86,0.01,,,0.15,VWS V14.01,2013-10-28 03:15:00,
2013-10-27 23:20:00,39.5,36.5,30.00,WNW,298,7.0,30.8,89,0.02,,,0.16,VWS V14.01,2013-10-28 03:20:00,
2013-10-27 23:25:00,39.2,36.8,30.00,North,354,7.0,30.8,91,0.02,,,0.16,VWS V14.01,2013-10-28 03:25:00,
2013-10-27 23:30:00,39.5,37.1,30.00,WNW,293,7.0,30.8,91,0.02,,,0.16,VWS V14.01,2013-10-28 03:30:00,
2013-10-27 23:35:00,39.6,36.6,30.00,NW,316,15.4,30.8,89,0.02,,,0.16,VWS V14.01,2013-10-28 03:35:00,
2013-10-27 23:40:00,39.8,37.1,30.00,SSE,155,8.4,30.8,90,0.02,,,0.16,VWS V14.01,2013-10-28 03:40:00,
2013-10-27 23:45:00,40.0,37.0,30.01,North,360,15.4,30.8,89,0.02,,,0.16,VWS V14.01,2013-10-28 03:45:00,
2013-10-27 23:50:00,40.1,36.8,30.01,NW,321,9.8,32.2,88,0.03,,,0.17,VWS V14.01,2013-10-28 03:50:00,
2013-10-27 23:55:00,40.4,37.1,30.01,West,271,9.8,32.2,88,0.03,,,0.17,VWS V14.01,2013-10-28 03:55:00,